Messwerte Bucaramanga

Temperatur

Temperatur
°C
1540177200 22.00 22.00 20
1540180800 23.00 23.00 20
1540184400 0.00 0.00 19
1540188000 1.00 1.00
1540191600 2.00 2.00
1540195200 3.00 3.00
1540198800 4.00 4.00
1540202400 5.00 5.00
1540206000 6.00 6.00 19
1540209600 7.00 7.00 20
1540213200 8.00 8.00 20
1540216800 9.00 9.00 20
1540220400 10.00 10.00 21
1540224000 11.00 11.00 22
1540227600 12.00 12.00 23
1540231200 13.00 13.00 23
1540234800 14.00 14.00 22
1540238400 15.00 15.00 24
1540242000 16.00 16.00 23
1540245600 17.00 17.00 20
1540249200 18.00 18.00 20
1540252800 19.00 19.00
1540256400 20.00 20.00 20
1540260000 21.00 21.00 19

Aktuellste Messwerte

Wettercharakter
Wetter: bedeckt
Temperatur
19 °C
Feuchtigkeit
100 %
Wind
5 km/hWindrichtung: Nordwest
Luftdruck
1017 hPa
Messzeit: 22. Oktober 2018, 21.00Datenquelle: METAR

Weitere Messstationen in der Nähe

Messstation Temperatur Entfernung
Barrancabermeja - 67 km
Cúcuta 23 °C 119 km
Rio Negro 15 °C 269 km
Arauca 24 °C 272 km
Medellín - 282 km
Bogotá 14 °C 287 km
Villavicencio - 329 km

Wind

Windrichtung Böen Mittelwind
° km/h km/h
1540177200 22.00 21.00 - 22.00 90° 10
1540180800 23.00 22.00 - 23.00 40° 5
1540184400 0.00 23.00 - 0.00 5
1540188000 1.00 0.00 - 1.00
1540191600 2.00 1.00 - 2.00
1540195200 3.00 2.00 - 3.00
1540198800 4.00 3.00 - 4.00
1540202400 5.00 4.00 - 5.00
1540206000 6.00 5.00 - 6.00 160° 5
1540209600 7.00 6.00 - 7.00 5
1540213200 8.00 7.00 - 8.00 5
1540216800 9.00 8.00 - 9.00 330° 5
1540220400 10.00 9.00 - 10.00 5
1540224000 11.00 10.00 - 11.00 5
1540227600 12.00 11.00 - 12.00 300° 5
1540231200 13.00 12.00 - 13.00 330° 5
1540234800 14.00 13.00 - 14.00 320° 10
1540238400 15.00 14.00 - 15.00 320° 10
1540242000 16.00 15.00 - 16.00 310° 10
1540245600 17.00 16.00 - 17.00 330° 10
1540249200 18.00 17.00 - 18.00 310° 10
1540252800 19.00 18.00 - 19.00 360° 10
1540256400 20.00 19.00 - 20.00 340° 10
1540260000 21.00 20.00 - 21.00 300° 5

Ihre Wetterstation

Fehlt Ihre Wetterstation auf unserem Portal?

Schreiben Sie an network@meteonews.ch

Klima

Wann ist es am wärmsten? Wann regnet es am wenigsten? Unsere Klimadaten geben Auskunft.